Alamo, Nevada Weather observations

Data are for observation ending at time listed.
 Day   Time    Ave.   Ave.  Ave.  Vector   Max.   Stn.    Total    Solar   Ave.  
  of    of     Air    Rel.  Wind   Wind    Wind   Baro.  Precip.   Rad.    Soil  
Year   Day     Temp.  Hum.  Speed  Dir.    Gust   Pres.                    Temp. 
2014   (PST)    F      %     mph   deg.    mph     mb.     in.     W/m2     F   
------------------------------------------------------------------------------
 238    7:40   70.0    59    1.0   210      3.9   896.3    0.00     141    69.3
 238    7:50   71.6    56    1.3   208      5.9   896.3    0.00     130    69.5
 238    8:00   72.8    54    1.2   174      3.7   896.3    0.00     115    69.8
 238    8:10   73.3    53    2.0   186      7.0   896.4    0.00     136    70.0
 238    8:20   74.1    51    1.6   179      6.4   896.5    0.00     198    70.1
 238    8:30   75.6    50    1.7   181      7.2   896.5    0.00     246    70.3
 238    8:40   76.4    47    1.8   169      7.5   896.6    0.00     218    70.7
 238    8:50   75.9    45    1.4   156      7.2   896.8    0.00     212    71.0
 238    9:00   75.6    46    1.7   176      6.4   896.8    0.00     167    71.3
 238    9:10   75.6    46    1.4   180      5.3   896.8    0.00     160    71.5
 238    9:20   76.4    45    1.1   172      4.0   896.8    0.00     178    71.6
 238    9:30   77.0    43    1.5   160      4.8   896.8    0.00     150    71.7
 238    9:40   77.3    42    1.6   169      6.8   896.9    0.00     218    71.8
 238    9:50   77.6    44    1.7   169      6.7   896.8    0.00     279    72.0
 238   10:00   77.5    43    2.1   178      5.8   896.8    0.00     281    72.3
 238   10:10   77.8    39    1.9   174      6.5   896.7    0.00     275    72.7
 238   10:20   77.8    37    1.6   177      5.0   896.6    0.00     290    73.0
 238   10:30   78.3    38    1.9   188      8.0   896.5    0.00     258    73.2
 238   10:40   78.4    37    1.7   167      5.7   896.4    0.00     165    73.5
 238   10:50   79.6    35    2.4   175      7.5   896.3    0.00     165    73.7
 238   11:00   80.9    32    2.3   109      8.7   896.2    0.00     151    74.1
 238   11:10   81.8    32    2.1   175      6.2   896.1    0.00     183    74.8
 238   11:20   82.7    31    2.5   173      6.9   896.0    0.00     199    75.5
 238   11:30   82.5    31    3.5   183      8.0   895.9    0.00     839    76.1
 238   11:40   83.0    30    2.2   176      9.0   895.8    0.00    1001    76.4
 238   11:50   83.4    28    2.0   166      6.7   895.7    0.00     999    76.8
 238   12:00   83.7    27    2.5   158      7.7   895.6    0.00     907    77.5
 238   12:10   85.3    27    1.6   168      4.7   895.5    0.00     976    78.7
 238   12:20   84.5    26    1.8   175      7.0   895.5    0.00     769    80.1
 238   12:30   85.5    26    1.7   172      7.5   895.4    0.00     977    81.2
 238   12:40   85.4    24    1.6   126      5.9   895.4    0.00     822    82.4
 238   12:50   83.9    25    3.0   188      7.2   895.3    0.00     655    83.4
 238   13:00   84.7    24    2.2   116      6.1   895.2    0.00     973    83.9
 238   13:10   84.2    25    1.7   190      7.1   895.0    0.00     370    84.6
 238   13:20   85.9    23    1.6   173      5.0   894.8    0.00     853    84.9
 238   13:30   86.1    20    3.4   191     10.5   894.6    0.00     899    85.4
 238   13:40   86.9    21    2.4   175      6.9   894.5    0.00     919    86.0
 238   13:50   87.4    19    3.2   190      8.1   894.5    0.00     882    86.8
 238   14:00   87.7    13    3.8   210     10.5   894.6    0.00     866    87.4
 238   14:10   88.6    12    3.9   216      9.5   894.8    0.00     843    88.0
 238   14:20   88.4    12    5.9   220     20.2   895.2    0.00     824    88.5
 238   14:30   88.5    12    3.3   203      9.1   895.1    0.00     792    88.9
 238   14:40   88.6    12    4.4   214     10.2   895.0    0.00     774    89.2
 238   14:50   89.3    11    2.3   217      6.6   895.0    0.00     761    89.5
 238   15:00   89.7    13    1.9   213      5.8   894.9    0.00     732    89.8
 238   15:10   89.5    12    2.8   216      6.9   895.1    0.00     565    90.0
 238   15:20   87.3    15    1.5   177      5.8   895.2    0.00     524    90.0
 238   15:30   87.5    13    2.5   197      7.2   895.2    0.00     558    89.8
 238   15:40   87.8    12    3.7   213     11.1   895.2    0.00     503    89.6
 238   15:50   87.2    11    4.2   207     11.0   895.2    0.00     515    89.2
 238   16:00   87.7    11    4.1   207      8.6   895.2    0.00     540    88.6
 238   16:10   87.0    11    2.6   213      8.3   895.2    0.00     128    88.0
 238   16:20   85.9    12    1.1   221      4.2   895.3    0.00     112    87.3
 238   16:30   86.1    12    1.7   297      5.2   895.5    0.00      82    86.6
 238   16:40   82.7    18    9.1    14     18.3   895.9    0.00      80    86.0
 238   16:50   80.7    20    9.3    16     16.3   896.0    0.00     107    85.3
 238   17:00   80.6    21    6.7     6     13.9   896.1    0.00     124    84.6
 238   17:10   80.3    21    6.4    11     12.1   896.1    0.00     150    84.1
 238   17:20   80.7    20    6.5    24     13.2   896.1    0.00     240    83.5
 238   17:30   81.1    20    5.9    27     11.2   896.0    0.00     201    83.0
 238   17:40   80.8    20    5.4    16     10.1   895.9    0.00     161    82.6
 238   17:50   80.6    20    4.1   358      6.7   895.8    0.00      98    82.2
 238   18:00   79.9    21    2.8   349      7.5   895.8    0.00      61    81.8
 238   18:10   79.5    21    2.6   349      4.7   895.8    0.00      16    81.4
 238   18:20   78.9    21    1.4   335      4.0   895.8    0.00       9    81.0
 238   18:30   78.6    21    2.0   359      6.4   895.8    0.00       1    80.5
 238   18:40   76.9    25    1.3   175      3.1   895.9    0.00       0    80.1
 238   18:50   73.4    30    0.4    78      2.0   896.1    0.00       0    79.6
 238   19:00   72.5    31    0.2    58      1.2   896.4    0.00       0    79.2
 238   19:10   71.9    32    0.4   345      2.0   896.6    0.00       0    78.9
 238   19:20   71.5    32    0.8   194      1.8   896.7    0.00       0    78.5
 238   19:30   72.7    29    2.6   200      6.8   896.9    0.00       0    78.1
 238   19:40   73.6    29    1.1   202      4.4   897.1    0.00       0    77.8
 238   19:50   73.6    29    0.9   235      3.6   897.3    0.00       0    77.4
 238   20:00   72.8    30    0.3    93      1.7   897.4    0.00       0    77.1
 238   20:10   71.8    32    0.9    48      2.1   897.6    0.00       0    76.9
 238   20:20   71.5    32    1.7    44      4.1   897.7    0.00       0    76.6
 238   20:30   72.4    29    1.7    16      5.1   897.8    0.00       0    76.3
 238   20:40   72.4    29    2.3    17      4.4   897.9    0.00       0    76.0
 238   20:50   71.8    30    2.3    40      4.2   898.0    0.00       0    75.8
 238   21:00   71.3    31    1.9    47      3.6   898.2    0.00       0    75.5
 238   21:10   71.6    30    1.7    22      4.5   898.3    0.00       0    75.3
 238   21:20   71.1    31    1.9    39      4.3   898.4    0.00       0    75.0
 238   21:30   70.9    32    1.9    54      4.5   898.6    0.00       0    74.8
 238   21:40   70.8    33    0.5   316      1.5   898.7    0.00       0    74.6
 238   21:50   70.6    34    0.8    28      2.4   898.7    0.00       0    74.5
 238   22:00   69.9    37    0.6   280      2.9   898.7    0.00       0    74.4
 238   22:10   69.8    36    1.1     3      2.9   898.8    0.00       0    74.3
 238   22:20   70.5    33    2.3   341      6.4   898.8    0.00       0    74.2
 238   22:30   71.2    32    2.2    17      6.4   898.8    0.00       0    74.0
 238   22:40   71.4    32    2.6    51      5.3   898.8    0.00       0    73.9
 238   22:50   71.4    31    2.5    61      5.1   898.9    0.00       0    73.8
 238   23:00   71.2    32    1.8    19      3.3   899.0    0.00       0    73.7
 238   23:10   70.4    33    1.8    36      2.9   899.1    0.00       0    73.6
 238   23:20   69.6    35    1.9    13      3.3   899.1    0.00       0    73.5
 238   23:30   69.2    36    2.5     4      5.6   899.1    0.00       0    73.4
 238   23:40   69.4    35    2.4   354      4.6   899.2    0.00       0    73.3
 238   23:50   69.2    35    2.6   337      5.3   899.3    0.00       0    73.1
 239    0:00   69.6    33    2.7   315      6.4   899.4    0.00       0    73.0
 239    0:10   70.0    33    1.4   351      4.9   899.5    0.00       0    72.9
 239    0:20   68.9    36    1.0   356      4.1   899.6    0.00       0    72.8
 239    0:30   69.3    33    1.5   343      4.0   899.6    0.00       0    72.7
 239    0:40   69.0    34    2.0   358      5.1   899.6    0.00       0    72.6
 239    0:50   68.1    36    2.3    12      3.8   899.6    0.00       0    72.5
 239    1:00   67.2    38    2.1    63      3.7   899.6    0.00       0    72.3
 239    1:10   67.3    37    1.8    60      4.2   899.7    0.00       0    72.2
 239    1:20   67.9    36    2.7    12      6.2   899.6    0.00       0    72.0
 239    1:30   67.9    36    3.2     1      6.0   899.7    0.00       0    71.9
 239    1:40   67.2    38    2.9     5      5.5   899.7    0.00       0    71.8
 239    1:50   66.6    40    2.5     6      5.3   899.7    0.00       0    71.7
 239    2:00   66.0    41    1.9    10      3.3   899.8    0.00       0    71.6
 239    2:10   65.3    42    1.8    16      3.3   899.8    0.00       0    71.4
 239    2:20   64.8    43    2.1     4      4.9   899.8    0.00       0    71.3
 239    2:30   64.5    44    1.9    10      3.2   899.8    0.00       0    71.1
 239    2:40   64.2    44    1.5     8      2.6   899.8    0.00       0    70.9
 239    2:50   64.5    42    1.7   324      4.1   899.8    0.00       0    70.8
 239    3:00   65.8    39    2.5   322      5.4   899.9    0.00       0    70.7
 239    3:10   66.5    38    3.1   327      6.6   900.0    0.00       0    70.6
 239    3:20   65.9    40    2.0   311      4.6   900.0    0.00       0    70.4
 239    3:30   65.6    41    1.8   317      5.9   900.0    0.00       0    70.3
 239    3:40   65.0    43    2.2    36      4.0   900.1    0.00       0    70.2
 239    3:50   63.5    46    1.9    32      3.8   900.1    0.00       0    70.0
 239    4:00   63.2    46    1.5    16      2.9   900.1    0.00       0    69.9
 239    4:10   62.8    47    1.3    33      2.6   900.3    0.00       0    69.8
 239    4:20   62.8    47    1.7    11      3.1   900.3    0.00       0    69.7
 239    4:30   62.4    48    1.8    29      3.6   900.3    0.00       0    69.5
 239    4:40   61.9    49    1.6    21      2.6   900.4    0.00       0    69.4
 239    4:50   61.4    51    0.8   347      1.5   900.5    0.00       0    69.3
 239    5:00   60.9    52    1.3   355      2.0   900.4    0.00       0    69.1
 239    5:10   60.6    52    1.8     6      3.3   900.4    0.00       0    69.0
 239    5:20   60.3    53    1.4     4      2.6   900.5    0.00       2    68.9
 239    5:30   60.2    53    2.0    47      4.1   900.5    0.00      10    68.7
 239    5:40   60.6    53    1.2     6      2.0   900.6    0.00      13    68.6
 239    5:50   60.9    52    1.3    21      2.6   900.7    0.00      18    68.5
 239    6:00   61.6    51    1.9    14      4.2   900.7    0.00      27    68.4
 239    6:10   62.9    49    2.0     6      3.4   900.8    0.00      37    68.3
 239    6:20   63.1    50    1.6    10      2.8   901.0    0.00      31    68.3
 239    6:30   63.5    51    2.4     4      4.9   901.0    0.00      42    68.3
 239    6:40   64.7    49    2.8    10      5.4   901.1    0.00      57    68.3
 239    6:50   65.9    46    3.8   350      6.9   901.1    0.00      85    68.3
 239    7:00   66.6    46    3.2   346      6.1   901.1    0.00     126    68.4
 239    7:10   66.6    48    2.7     2      4.9   901.2    0.00      59    68.5
 239    7:20   67.7    45    3.4   345      6.9   901.1    0.00      60    68.6
 239    7:30   68.5    45    3.5   355      7.1   901.2    0.00      43    68.6

Return to Alamo, Nevada graphs page.


Western Regional Climate Center,wrcc@dri.edu